Time;durP1;ratioP1;P1;durP2;ratioP2;P2;SDS_P1;SDS_P2;PMS_P1;PMS_P2;Temp;Humidity;BMP_temperature;BMP_pressure;BME280_temperature;BME280_humidity;BME280_pressure;Samples;Min_cycle;Max_cycle;Signal;HPM_P1;HPM_P2
2021/12/29 00:00:25;;;;;;;;;16.25;5.75;;;;;16.38;65.53;100453.84;5061613;28;62103;-76
2021/12/29 00:02:52;;;;;;;;;13.25;7.75;;;;;16.41;65.47;100440.63;5061895;28;61718;-76
2021/12/29 00:05:18;;;;;;;;;5.25;4.00;;;;;16.39;65.61;100450.31;5062146;28;62177;-76
2021/12/29 00:07:43;;;;;;;;;7.00;2.00;;;;;16.41;65.26;100460.09;5076746;28;63446;-76
2021/12/29 00:10:09;;;;;;;;;8.25;2.25;;;;;16.35;65.31;100460.00;5077230;28;61867;-76
2021/12/29 00:12:40;;;;;;;;;9.75;3.00;;;;;16.44;65.44;100461.88;5061775;28;61974;-76
2021/12/29 00:15:10;;;;;;;;;4.50;2.50;;;;;16.39;65.49;100471.50;5061849;28;62197;-76
2021/12/29 00:17:36;;;;;;;;;7.25;6.25;;;;;16.34;65.59;100468.78;5060676;28;62712;-77
2021/12/29 00:20:03;;;;;;;;;14.50;3.50;;;;;16.35;65.51;100487.34;5061682;28;62020;-77
2021/12/29 00:22:28;;;;;;;;;6.25;3.00;;;;;16.39;65.48;100493.59;5061444;28;61943;-77
2021/12/29 00:24:54;;;;;;;;;4.25;3.00;;;;;16.47;65.37;100509.59;5060735;28;61957;-76
2021/12/29 00:27:19;;;;;;;;;14.75;4.25;;;;;16.50;65.13;100507.91;5060513;28;62094;-77
2021/12/29 00:29:45;;;;;;;;;5.00;2.75;;;;;16.49;65.14;100514.06;5061776;28;61866;-76
2021/12/29 00:32:10;;;;;;;;;5.50;2.75;;;;;16.44;64.70;100514.88;5053846;28;61785;-76
2021/12/29 00:34:35;;;;;;;;;6.00;2.50;;;;;16.47;64.97;100513.13;5041209;28;61753;-76
2021/12/29 00:37:01;;;;;;;;;7.25;2.75;;;;;16.43;65.12;100519.28;5039110;28;64854;-76
2021/12/29 00:39:26;;;;;;;;;9.75;3.75;;;;;16.44;65.10;100526.34;5041084;28;62059;-77
2021/12/29 00:41:52;;;;;;;;;6.25;4.75;;;;;16.38;65.57;100514.78;5041428;28;62103;-77
2021/12/29 00:44:17;;;;;;;;;7.00;6.00;;;;;16.40;65.63;100531.59;5041246;28;62274;-76
2021/12/29 00:46:43;;;;;;;;;8.25;2.75;;;;;16.41;65.66;100534.25;5040359;28;61903;-76
2021/12/29 00:49:08;;;;;;;;;9.00;3.00;;;;;16.35;65.74;100527.09;5041358;28;61846;-76
2021/12/29 00:51:35;;;;;;;;;9.75;5.75;;;;;16.43;66.03;100528.97;5056473;28;62111;-76
2021/12/29 00:54:00;;;;;;;;;7.75;2.50;;;;;16.44;66.14;100526.34;5041161;28;61900;-76
2021/12/29 00:56:26;;;;;;;;;9.25;4.25;;;;;16.43;66.11;100537.84;5040268;28;62740;-77
2021/12/29 00:58:51;;;;;;;;;5.25;3.25;;;;;16.36;66.57;100530.63;5056124;28;62136;-76
2021/12/29 01:01:17;;;;;;;;;5.75;3.75;;;;;16.32;66.38;100531.44;5040671;28;61916;-76
2021/12/29 01:03:43;;;;;;;;;6.00;4.75;;;;;16.31;66.63;100540.25;5040940;28;61768;-76
2021/12/29 01:06:09;;;;;;;;;13.25;9.25;;;;;16.28;66.98;100535.81;5040331;28;62036;-76
2021/12/29 01:08:35;;;;;;;;;7.00;3.00;;;;;16.29;67.26;100534.94;5040624;28;61752;-76
2021/12/29 01:11:01;;;;;;;;;11.00;4.75;;;;;16.33;67.30;100534.13;5056415;28;62078;-77
2021/12/29 01:13:31;;;;;;;;;11.00;3.75;;;;;16.28;67.48;100541.13;5040857;28;61742;-76
2021/12/29 01:16:15;;;;;;;;;5.00;5.00;;;;;16.32;67.29;100544.69;5055484;28;64794;-76
2021/12/29 01:18:43;;;;;;;;;10.25;3.50;;;;;16.34;67.49;100541.19;5055930;28;62188;-76
2021/12/29 01:21:09;;;;;;;;;14.25;5.50;;;;;16.36;67.44;100550.06;5056351;28;62187;-76
2021/12/29 01:23:35;;;;;;;;;4.25;2.00;;;;;16.37;67.54;100548.31;5040906;28;61854;-76
2021/12/29 01:26:01;;;;;;;;;8.50;5.75;;;;;16.32;67.54;100550.91;5039946;28;61895;-76
2021/12/29 01:28:26;;;;;;;;;12.25;5.00;;;;;16.33;67.77;100547.38;5039151;28;61949;-76
2021/12/29 01:30:52;;;;;;;;;3.00;1.00;;;;;16.32;68.00;100548.25;5055789;28;62288;-76
2021/12/29 01:33:17;;;;;;;;;8.00;2.75;;;;;16.35;67.67;100542.09;5056596;28;62908;-76
2021/12/29 01:35:43;;;;;;;;;12.75;5.75;;;;;16.30;67.99;100542.03;5059962;28;62024;-77
2021/12/29 01:38:09;;;;;;;;;16.25;2.25;;;;;16.34;67.96;100535.00;5079439;28;61885;-76
2021/12/29 01:40:37;;;;;;;;;4.50;3.75;;;;;16.37;68.11;100537.72;5063995;28;61887;-77
2021/12/29 01:43:08;;;;;;;;;9.50;5.50;;;;;16.42;68.00;100546.63;5064353;28;61810;-76
2021/12/29 01:45:34;;;;;;;;;15.00;7.25;;;;;16.40;68.07;100540.41;5063203;28;62303;-76
2021/12/29 01:48:01;;;;;;;;;9.75;3.75;;;;;16.42;67.98;100545.75;5063804;28;61870;-76
2021/12/29 01:50:30;;;;;;;;;7.50;4.50;;;;;16.41;68.04;100542.22;5063742;28;62026;-77
2021/12/29 01:53:01;;;;;;;;;7.50;5.50;;;;;16.43;68.20;100550.16;5079759;27;62241;-76
2021/12/29 01:55:29;;;;;;;;;11.00;3.00;;;;;16.46;68.52;100545.81;5063133;28;62880;-77
2021/12/29 01:57:54;;;;;;;;;11.75;6.00;;;;;16.45;68.21;100546.69;5079026;27;61740;-76
2021/12/29 02:00:23;;;;;;;;;10.00;4.75;;;;;16.44;68.39;100559.91;5063842;28;61734;-77
2021/12/29 02:02:49;;;;;;;;;7.50;5.50;;;;;16.33;68.70;100557.09;5063684;28;61872;-76
2021/12/29 02:05:15;;;;;;;;;7.00;3.50;;;;;16.36;68.42;100565.94;5063183;28;62966;-76
2021/12/29 02:07:42;;;;;;;;;8.25;4.00;;;;;16.36;68.85;100562.41;5063558;28;62235;-76
2021/12/29 02:10:09;;;;;;;;;6.25;4.25;;;;;16.38;68.90;100559.81;5063867;28;61912;-77
2021/12/29 02:12:35;;;;;;;;;6.00;4.00;;;;;16.38;68.94;100558.03;5063434;28;62024;-77
2021/12/29 02:15:01;;;;;;;;;7.75;5.75;;;;;16.41;68.68;100559.84;5063069;28;62343;-76
2021/12/29 02:17:26;;;;;;;;;12.25;4.25;;;;;16.42;69.04;100559.88;5063414;28;61652;-76
2021/12/29 02:19:52;;;;;;;;;11.25;8.00;;;;;16.41;68.82;100558.09;5063391;28;61741;-76
2021/12/29 02:25:35;;;;;;;;;11.75;3.00;;;;;16.39;69.03;100556.28;5062741;28;61834;-76
2021/12/29 02:27:55;;;;;;;;;11.00;4.00;;;;;16.41;69.07;100552.81;5063840;27;61789;-76
2021/12/29 02:30:24;;;;;;;;;10.25;3.75;;;;;16.44;68.91;100562.56;5079189;28;61871;-76
2021/12/29 02:32:54;;;;;;;;;7.75;4.50;;;;;16.40;69.03;100561.59;5065876;27;61703;-76
2021/12/29 02:35:20;;;;;;;;;12.00;5.00;;;;;16.41;69.12;100560.75;5042180;28;62694;-76
2021/12/29 02:37:46;;;;;;;;;8.00;4.50;;;;;16.42;69.06;100559.88;5043012;28;61909;-76
2021/12/29 02:40:12;;;;;;;;;7.25;2.75;;;;;16.47;68.75;100563.47;5043281;28;62323;-76
2021/12/29 02:42:41;;;;;;;;;15.00;3.50;;;;;16.46;69.04;100558.19;5058459;27;62138;-77
2021/12/29 02:45:09;;;;;;;;;8.25;3.00;;;;;16.49;69.06;100558.22;5042387;28;62070;-77
2021/12/29 02:47:34;;;;;;;;;11.00;3.00;;;;;16.48;68.89;100546.72;5042090;28;61775;-76
2021/12/29 02:49:59;;;;;;;;;8.75;2.50;;;;;16.51;68.88;100549.41;5042449;28;61722;-76
2021/12/29 02:52:25;;;;;;;;;3.50;2.75;;;;;16.47;68.83;100547.59;5043023;28;62175;-76
2021/12/29 02:54:52;;;;;;;;;4.50;4.50;;;;;16.49;69.08;100547.63;5041788;28;61653;-76
2021/12/29 02:57:18;;;;;;;;;8.75;4.75;;;;;16.46;69.00;100548.47;5042213;28;62144;-76
2021/12/29 02:59:44;;;;;;;;;9.50;3.25;;;;;16.47;68.94;100557.31;5042907;28;62000;-76
2021/12/29 03:02:09;;;;;;;;;4.50;4.00;;;;;16.42;69.12;100551.94;5042730;28;61735;-76
2021/12/29 03:04:35;;;;;;;;;5.00;4.00;;;;;16.47;69.11;100550.22;5042119;28;62581;-76
2021/12/29 03:07:00;;;;;;;;;7.25;3.00;;;;;16.50;69.13;100557.38;5042543;28;62036;-77
2021/12/29 03:09:26;;;;;;;;;10.50;3.00;;;;;16.55;68.85;100556.56;5042593;28;61793;-76
2021/12/29 03:11:51;;;;;;;;;5.50;3.00;;;;;16.56;68.94;100549.53;5057590;28;61931;-76
2021/12/29 03:14:17;;;;;;;;;3.00;1.25;;;;;16.58;68.74;100566.31;5041994;28;61841;-77
2021/12/29 03:16:43;;;;;;;;;5.50;3.50;;;;;16.56;69.03;100552.16;5042395;28;61812;-76
2021/12/29 03:19:08;;;;;;;;;7.00;5.00;;;;;16.60;68.96;100561.03;5042546;28;61811;-77
2021/12/29 03:21:35;;;;;;;;;6.75;4.00;;;;;16.61;69.11;100552.25;5042520;28;61996;-76
2021/12/29 03:24:02;;;;;;;;;13.25;3.25;;;;;16.58;69.38;100547.75;5041585;28;61949;-76
2021/12/29 03:26:28;;;;;;;;;5.75;2.00;;;;;16.60;69.61;100553.09;5042026;28;62366;-76
2021/12/29 03:28:54;;;;;;;;;9.75;3.50;;;;;16.64;70.14;100562.88;5057629;28;61856;-76
2021/12/29 03:31:21;;;;;;;;;5.00;2.00;;;;;16.65;69.85;100559.38;5042531;28;61905;-76
2021/12/29 03:33:48;;;;;;;;;4.75;3.50;;;;;16.64;69.50;100562.88;5061401;28;61805;-76
2021/12/29 03:36:14;;;;;;;;;4.75;2.75;;;;;16.68;69.72;100562.94;5062300;28;61898;-76
2021/12/29 03:38:41;;;;;;;;;4.75;3.00;;;;;16.68;69.84;100559.41;5062353;28;61705;-76
2021/12/29 03:41:10;;;;;;;;;7.50;2.25;;;;;16.69;70.02;100553.25;5062182;28;61893;-76
2021/12/29 03:43:38;;;;;;;;;8.50;2.50;;;;;16.69;69.59;100555.91;5061646;28;61821;-77
2021/12/29 03:46:05;;;;;;;;;6.00;4.00;;;;;16.71;69.53;100556.78;5077512;28;61736;-77
2021/12/29 03:48:32;;;;;;;;;4.75;1.75;;;;;16.70;69.63;100550.63;5062025;28;61944;-77
2021/12/29 03:50:59;;;;;;;;;3.00;3.00;;;;;16.69;69.81;100545.31;5062235;28;62353;-76
2021/12/29 03:53:27;;;;;;;;;3.25;2.50;;;;;16.71;69.76;100549.75;5061441;28;61717;-76
2021/12/29 03:55:53;;;;;;;;;7.00;4.75;;;;;16.70;69.57;100542.66;5061326;28;61852;-76
2021/12/29 03:58:21;;;;;;;;;4.00;2.00;;;;;16.74;69.13;100540.97;5077782;28;61740;-76
2021/12/29 04:00:48;;;;;;;;;4.25;2.75;;;;;16.73;69.37;100541.81;5061971;28;61760;-77
2021/12/29 04:03:14;;;;;;;;;5.50;3.00;;;;;16.70;69.17;100534.72;5061102;28;62810;-77
2021/12/29 04:05:40;;;;;;;;;4.25;2.00;;;;;16.71;69.20;100538.25;5061958;28;61843;-77
2021/12/29 04:08:05;;;;;;;;;1.25;1.25;;;;;16.75;69.26;100543.63;5061633;28;61853;-77
2021/12/29 04:10:31;;;;;;;;;4.50;3.00;;;;;16.78;69.29;100540.13;5077199;28;62222;-76
2021/12/29 04:12:57;;;;;;;;;3.25;1.25;;;;;16.78;69.00;100534.84;5061064;28;62900;-77
2021/12/29 04:15:25;;;;;;;;;5.25;2.75;;;;;16.76;68.89;100536.56;5061696;28;61801;-76
2021/12/29 04:17:57;;;;;;;;;5.75;3.00;;;;;16.82;68.88;100544.66;5061605;28;62099;-76
2021/12/29 04:23:09;;;;;;;;;3.50;3.50;;;;;16.77;69.71;100536.59;5060937;28;62150;-76
2021/12/29 04:25:38;;;;;;;;;1.00;1.00;;;;;16.71;69.72;100541.81;5076802;28;61895;-77
2021/12/29 04:28:08;;;;;;;;;6.50;2.50;;;;;16.64;70.08;100544.31;5061411;28;61841;-77
2021/12/29 04:30:34;;;;;;;;;6.75;2.00;;;;;16.62;70.56;100540.75;5077336;27;62278;-77
2021/12/29 04:32:59;;;;;;;;;3.00;2.00;;;;;16.60;71.17;100531.91;5046679;28;62893;-76
2021/12/29 04:35:25;;;;;;;;;0.25;0.25;;;;;16.59;71.46;100543.38;5041020;28;61766;-77
2021/12/29 04:37:51;;;;;;;;;1.00;1.00;;;;;16.53;71.99;100539.75;5041178;28;61966;-76
2021/12/29 04:40:17;;;;;;;;;2.25;1.00;;;;;16.52;72.18;100545.03;5041432;28;62130;-76
2021/12/29 04:42:43;;;;;;;;;8.75;1.50;;;;;16.46;73.14;100537.88;5040668;28;61784;-76
2021/12/29 04:45:09;;;;;;;;;7.00;2.00;;;;;16.41;73.08;100536.91;5041049;28;62021;-76
2021/12/29 04:47:39;;;;;;;;;1.75;1.00;;;;;16.40;73.68;100534.22;5056566;28;62344;-76
2021/12/29 04:50:08;;;;;;;;;2.00;1.00;;;;;16.42;73.63;100532.50;5041268;28;61759;-77
2021/12/29 04:52:33;;;;;;;;;0.25;0.00;;;;;16.42;73.28;100522.78;5040441;28;61893;-77
2021/12/29 04:54:59;;;;;;;;;1.00;1.00;;;;;16.45;73.84;100527.25;5041070;28;61883;-76
2021/12/29 04:57:26;;;;;;;;;1.00;1.00;;;;;16.48;73.71;100516.72;5056309;28;61847;-77
2021/12/29 04:59:51;;;;;;;;;5.00;0.75;;;;;16.45;74.01;100520.22;5041093;28;62111;-76
2021/12/29 05:02:17;;;;;;;;;3.75;0.50;;;;;16.47;73.96;100518.44;5040144;28;62886;-76
2021/12/29 05:04:47;;;;;;;;;0.00;0.00;;;;;16.55;74.10;100516.81;5040900;28;61802;-76
2021/12/29 05:09:59;;;;;;;;;2.25;1.00;;;;;16.65;73.73;100509.03;5041105;28;62114;-76
2021/12/29 05:12:24;;;;;;;;;2.00;1.00;;;;;16.66;73.68;100510.78;5057774;28;63840;-76
2021/12/29 05:14:50;;;;;;;;;1.00;1.00;;;;;16.66;73.72;100506.38;5044377;28;61811;-77
2021/12/29 05:17:15;;;;;;;;;1.00;1.00;;;;;16.65;73.75;100503.72;5044175;28;62956;-76
2021/12/29 05:19:40;;;;;;;;;0.00;0.00;;;;;16.65;73.99;100504.59;5044632;28;61810;-76
2021/12/29 05:22:06;;;;;;;;;2.50;0.00;;;;;16.67;74.00;100505.53;5058936;28;63490;-76
2021/12/29 05:24:31;;;;;;;;;0.75;0.25;;;;;16.67;74.43;100502.00;5059412;28;61844;-77
2021/12/29 05:26:58;;;;;;;;;0.00;0.00;;;;;16.65;74.80;100499.31;5042910;28;61854;-76
2021/12/29 05:29:24;;;;;;;;;1.00;1.00;;;;;16.62;75.27;100495.72;5044015;28;61893;-76
2021/12/29 05:31:49;;;;;;;;;1.00;1.00;;;;;16.59;75.32;100493.91;5059405;28;63531;-76
2021/12/29 05:34:15;;;;;;;;;1.75;0.50;;;;;16.60;75.54;100493.03;5058775;28;61866;-76
2021/12/29 05:36:40;;;;;;;;;1.00;0.00;;;;;16.61;76.04;100493.94;5064038;28;62141;-76
2021/12/29 05:39:06;;;;;;;;;0.00;0.00;;;;;16.58;75.71;100484.16;5064724;28;61861;-77
2021/12/29 05:41:31;;;;;;;;;2.25;1.00;;;;;16.56;76.37;100485.94;5062039;28;63960;-76
2021/12/29 05:43:57;;;;;;;;;1.25;1.00;;;;;16.58;76.48;100475.31;5064239;28;61934;-76
2021/12/29 05:46:22;;;;;;;;;1.50;1.00;;;;;16.60;76.31;100486.84;5064090;28;61950;-76
2021/12/29 05:48:48;;;;;;;;;2.25;1.00;;;;;16.56;76.59;100476.22;5064125;28;61801;-76
2021/12/29 05:51:13;;;;;;;;;0.50;0.00;;;;;16.60;76.49;100479.78;5061866;28;63756;-76
2021/12/29 05:53:41;;;;;;;;;1.00;1.00;;;;;16.60;76.61;100474.47;5063836;28;61846;-77
2021/12/29 05:56:09;;;;;;;;;3.50;2.25;;;;;16.60;76.82;100468.28;5063881;28;62132;-76
2021/12/29 05:58:43;;;;;;;;;1.00;1.00;;;;;16.59;77.04;100467.41;5064024;28;61860;-76
2021/12/29 06:01:09;;;;;;;;;1.50;1.00;;;;;16.58;77.03;100473.56;5063353;28;61752;-76
2021/12/29 06:03:37;;;;;;;;;1.00;1.00;;;;;16.57;77.29;100474.44;5063466;28;61690;-76
2021/12/29 06:06:03;;;;;;;;;0.75;0.75;;;;;16.58;77.25;100467.38;5075761;28;61852;-77
2021/12/29 06:08:28;;;;;;;;;2.00;1.00;;;;;16.58;77.02;100459.44;5063849;28;61867;-76
2021/12/29 06:10:54;;;;;;;;;1.00;1.00;;;;;16.62;77.08;100463.91;5063102;28;61859;-77
2021/12/29 06:13:19;;;;;;;;;2.00;2.00;;;;;16.65;77.23;100463.97;5063583;28;61999;-76
2021/12/29 06:15:45;;;;;;;;;2.00;2.00;;;;;16.61;77.79;100462.16;5063774;28;62006;-76
2021/12/29 06:18:10;;;;;;;;;6.00;3.00;;;;;16.56;77.76;100462.97;5063573;28;62237;-76
2021/12/29 06:20:38;;;;;;;;;2.50;2.50;;;;;16.57;78.15;100469.16;5062454;28;62095;-76
2021/12/29 06:23:12;;;;;;;;;1.75;1.75;;;;;16.57;78.07;100469.16;5062276;28;61793;-76
2021/12/29 06:25:37;;;;;;;;;1.75;1.75;;;;;16.56;77.90;100472.69;5063275;28;61778;-76
2021/12/29 06:28:03;;;;;;;;;1.75;1.75;;;;;16.55;78.14;100470.88;5079299;28;62098;-76
2021/12/29 06:30:28;;;;;;;;;3.75;3.00;;;;;16.59;78.16;100472.72;5062520;28;61961;-76
2021/12/29 06:32:54;;;;;;;;;3.00;2.75;;;;;16.55;78.29;100468.22;5055042;28;62085;-75
2021/12/29 06:35:19;;;;;;;;;8.75;4.75;;;;;16.60;78.39;100468.28;5062762;28;62117;-76
2021/12/29 06:37:45;;;;;;;;;5.00;3.00;;;;;16.58;78.20;100472.69;5052699;28;61869;-76
2021/12/29 06:40:12;;;;;;;;;3.00;3.00;;;;;16.57;78.57;100466.50;5052634;28;61948;-76
2021/12/29 06:42:37;;;;;;;;;4.00;3.00;;;;;16.60;78.54;100465.66;5069075;28;61797;-76
2021/12/29 06:45:03;;;;;;;;;6.50;3.25;;;;;16.60;78.65;100471.81;5052176;28;61841;-76
2021/12/29 06:47:29;;;;;;;;;3.00;3.00;;;;;16.61;78.75;100470.97;5051624;28;61914;-76
2021/12/29 06:49:55;;;;;;;;;4.25;3.00;;;;;16.65;78.70;100475.47;5068377;28;63629;-76
2021/12/29 06:52:21;;;;;;;;;7.75;3.75;;;;;16.64;78.63;100470.13;5051067;28;61774;-76
2021/12/29 06:54:46;;;;;;;;;4.00;3.00;;;;;16.63;78.57;100465.72;5050336;28;62028;-77
2021/12/29 06:57:12;;;;;;;;;7.25;3.00;;;;;16.66;78.83;100468.38;5058175;28;62372;-76
2021/12/29 06:59:38;;;;;;;;;2.75;2.75;;;;;16.65;78.69;100467.50;5057569;28;63941;-77
2021/12/29 07:02:03;;;;;;;;;5.00;3.00;;;;;16.63;78.96;100468.34;5047883;28;61929;-76
2021/12/29 07:04:29;;;;;;;;;2.50;2.50;;;;;16.65;79.08;100480.75;5053816;28;61805;-76
2021/12/29 07:06:55;;;;;;;;;4.00;3.75;;;;;16.67;78.90;100476.38;5078511;28;61793;-76
2021/12/29 07:09:21;;;;;;;;;6.00;4.25;;;;;16.71;79.10;100464.94;5060637;28;63903;-76
2021/12/29 07:11:47;;;;;;;;;4.75;2.75;;;;;16.68;79.05;100458.69;5062467;28;62262;-76
2021/12/29 07:14:13;;;;;;;;;6.25;3.75;;;;;16.68;79.00;100466.66;5052559;28;61888;-76
2021/12/29 07:16:43;;;;;;;;;4.25;2.50;;;;;16.67;79.16;100478.13;5042924;28;62130;-76
2021/12/29 07:19:09;;;;;;;;;6.75;3.00;;;;;16.66;79.24;100468.38;5057230;28;64477;-76
2021/12/29 07:21:34;;;;;;;;;3.75;3.75;;;;;16.68;79.66;100466.66;5042104;28;61687;-76
2021/12/29 07:24:00;;;;;;;;;2.00;2.00;;;;;16.69;79.44;100471.97;5040922;28;61740;-76
2021/12/29 07:26:27;;;;;;;;;6.75;3.50;;;;;16.72;79.63;100472.00;5042411;28;61786;-76
2021/12/29 07:28:52;;;;;;;;;5.50;3.00;;;;;16.73;79.61;100468.50;5041426;28;62572;-78
2021/12/29 07:31:19;;;;;;;;;3.00;2.50;;;;;16.74;79.65;100469.38;5044585;28;62106;-78
2021/12/29 07:33:46;;;;;;;;;2.50;2.50;;;;;16.79;80.03;100462.38;5052964;28;62020;-78
2021/12/29 07:36:14;;;;;;;;;4.75;3.00;;;;;16.78;79.62;100468.56;5046196;28;61941;-75
2021/12/29 07:38:40;;;;;;;;;2.25;2.25;;;;;16.77;79.77;100466.78;5054147;28;61959;-76
2021/12/29 07:41:06;;;;;;;;;5.00;3.00;;;;;16.79;79.99;100472.97;5074021;28;61978;-76
2021/12/29 07:43:32;;;;;;;;;3.00;3.00;;;;;16.81;79.80;100476.59;5060754;28;61884;-76
2021/12/29 07:45:57;;;;;;;;;3.50;2.75;;;;;16.76;79.81;100473.84;5060500;28;61952;-76
2021/12/29 07:48:28;;;;;;;;;1.00;1.00;;;;;16.79;80.12;100478.28;5059378;28;61959;-76
2021/12/29 07:50:54;;;;;;;;;2.00;2.00;;;;;16.85;80.28;100486.38;5060020;28;62033;-76
2021/12/29 07:53:21;;;;;;;;;7.25;3.00;;;;;16.88;79.98;100486.44;5060439;28;61859;-76
2021/12/29 07:55:46;;;;;;;;;3.00;3.00;;;;;16.86;80.21;100493.47;5060132;28;61976;-76
2021/12/29 07:58:12;;;;;;;;;6.25;2.25;;;;;16.87;80.29;100483.75;5060585;28;62080;-76
2021/12/29 08:00:38;;;;;;;;;3.00;3.00;;;;;16.88;80.23;100486.44;5061703;28;61894;-76
2021/12/29 08:03:04;;;;;;;;;4.00;2.00;;;;;16.91;80.39;100485.56;5061757;28;61737;-76
2021/12/29 08:05:29;;;;;;;;;6.00;3.25;;;;;16.91;80.31;100490.88;5062116;28;62387;-76
2021/12/29 08:07:54;;;;;;;;;6.00;1.75;;;;;16.87;80.59;100491.69;5061088;28;62036;-76
2021/12/29 08:10:20;;;;;;;;;6.00;4.00;;;;;16.89;80.78;100506.75;5060589;28;62108;-76
2021/12/29 08:12:46;;;;;;;;;8.00;3.00;;;;;16.91;80.78;100499.72;5060222;28;62235;-76
2021/12/29 08:15:12;;;;;;;;;6.25;3.00;;;;;16.92;80.99;100496.22;5061786;28;62088;-76
2021/12/29 08:17:39;;;;;;;;;2.25;2.25;;;;;16.97;80.86;100512.16;5061245;28;61846;-76
2021/12/29 08:20:06;;;;;;;;;5.25;3.00;;;;;17.01;80.80;100513.09;5061224;28;62027;-75
2021/12/29 08:22:32;;;;;;;;;4.00;2.50;;;;;17.02;81.01;100514.88;5061800;28;61729;-76
2021/12/29 08:24:59;;;;;;;;;3.50;2.50;;;;;17.03;80.99;100520.22;5061555;28;62209;-76
2021/12/29 08:27:25;;;;;;;;;3.00;3.00;;;;;17.01;81.03;100518.38;5060668;28;62170;-76
2021/12/29 08:29:50;;;;;;;;;2.00;2.00;;;;;17.04;81.19;100518.44;5061247;28;61875;-76
2021/12/29 08:32:15;;;;;;;;;5.25;3.25;;;;;17.01;81.27;100526.34;5060988;28;61800;-76
2021/12/29 08:34:41;;;;;;;;;3.00;3.00;;;;;17.04;81.42;100523.75;5061638;28;61811;-76
2021/12/29 08:37:06;;;;;;;;;5.75;2.50;;;;;17.08;81.14;100513.19;5060488;28;62746;-76
2021/12/29 08:39:32;;;;;;;;;8.50;4.00;;;;;17.10;81.25;100527.38;5061317;28;61911;-76
2021/12/29 08:41:58;;;;;;;;;3.00;3.00;;;;;17.04;81.25;100529.94;5061301;28;61928;-76
2021/12/29 08:44:23;;;;;;;;;4.50;3.00;;;;;17.11;81.36;100521.19;5060030;28;61965;-76
2021/12/29 08:46:49;;;;;;;;;5.75;4.25;;;;;17.13;81.34;100523.88;5062249;28;62737;-76
2021/12/29 08:49:14;;;;;;;;;8.75;4.25;;;;;17.14;81.39;100510.63;5064627;28;61990;-76
2021/12/29 08:51:40;;;;;;;;;2.50;2.25;;;;;17.13;81.50;100519.44;5064911;28;61776;-76
2021/12/29 08:54:06;;;;;;;;;3.25;3.00;;;;;17.14;81.86;100525.66;5064916;28;62163;-76
2021/12/29 08:56:32;;;;;;;;;3.00;3.00;;;;;17.17;81.84;100518.63;5063973;28;61748;-76
2021/12/29 08:58:57;;;;;;;;;6.00;4.00;;;;;17.27;81.77;100521.41;5062807;28;61796;-76
2021/12/29 09:01:25;;;;;;;;;7.50;7.00;;;;;17.33;81.87;100522.38;5080363;27;61839;-75
2021/12/29 09:03:51;;;;;;;;;7.50;6.50;;;;;17.38;82.09;100527.75;5079743;28;61728;-76
2021/12/29 09:06:16;;;;;;;;;3.50;3.50;;;;;17.38;82.38;100519.78;5060080;28;61813;-79
2021/12/29 09:08:43;;;;;;;;;3.00;3.00;;;;;17.45;82.60;100518.09;5046199;28;61833;-78
2021/12/29 09:11:09;;;;;;;;;3.75;3.75;;;;;17.48;82.71;100504.84;5064199;28;61975;-79
2021/12/29 09:13:35;;;;;;;;;2.75;2.75;;;;;17.51;83.12;100505.78;5058197;28;61848;-79
2021/12/29 09:16:01;;;;;;;;;1.00;1.00;;;;;17.55;83.18;100506.72;5050694;28;62034;-79
2021/12/29 09:18:29;;;;;;;;;3.25;1.50;;;;;17.63;83.30;100502.38;5069747;28;61959;-79
2021/12/29 09:20:58;;;;;;;;;1.25;1.00;;;;;17.67;83.56;100500.63;5053804;28;62011;-79
2021/12/29 09:23:23;;;;;;;;;2.75;1.50;;;;;17.70;83.59;100501.56;5052673;28;61898;-76
2021/12/29 09:25:49;;;;;;;;;2.00;0.75;;;;;17.73;83.49;100508.66;5051997;28;62173;-80
2021/12/29 09:28:18;;;;;;;;;2.00;1.25;;;;;17.79;83.30;100524.66;5068543;28;61847;-79
2021/12/29 09:30:46;;;;;;;;;1.00;1.00;;;;;17.82;83.66;100515.84;5054472;28;61664;-79
2021/12/29 09:33:15;;;;;;;;;1.00;1.00;;;;;17.84;83.78;100525.63;5055312;28;62292;-79
2021/12/29 09:35:40;;;;;;;;;1.00;1.00;;;;;17.77;84.07;100513.13;5051841;28;62042;-79
2021/12/29 09:38:07;;;;;;;;;1.25;1.25;;;;;17.92;83.93;100501.81;5069313;28;61865;-79
2021/12/29 09:40:34;;;;;;;;;2.50;2.00;;;;;17.99;83.64;100501.00;5052299;28;61889;-76
2021/12/29 09:43:00;;;;;;;;;2.25;2.25;;;;;18.05;83.71;100505.47;5044748;28;62249;-76
2021/12/29 09:45:27;;;;;;;;;3.00;3.00;;;;;18.09;83.87;100508.19;5069157;28;63676;-75
2021/12/29 09:47:55;;;;;;;;;5.00;3.50;;;;;18.11;83.80;100492.25;5051285;28;61975;-76
2021/12/29 09:50:20;;;;;;;;;4.00;4.00;;;;;18.04;84.84;100496.63;5052492;28;61762;-76
2021/12/29 09:52:48;;;;;;;;;3.75;2.75;;;;;18.11;84.72;100498.47;5051729;28;61991;-76
2021/12/29 09:55:16;;;;;;;;;1.00;1.00;;;;;18.17;85.61;100495.84;5052926;28;61869;-76
2021/12/29 09:57:45;;;;;;;;;3.00;2.00;;;;;18.21;85.84;100491.47;5052231;28;61914;-79
2021/12/29 10:00:29;;;;;;;;;5.25;3.00;;;;;18.28;85.40;100498.59;5048729;28;61798;-78
2021/12/29 10:02:57;;;;;;;;;4.00;4.00;;;;;18.36;85.59;100491.59;5053353;28;61799;-79
2021/12/29 10:05:26;;;;;;;;;2.25;2.25;;;;;18.39;86.09;100499.56;5072264;28;63587;-79
2021/12/29 10:08:05;;;;;;;;;1.75;1.00;;;;;18.43;85.70;100496.97;5076814;28;62082;-79
2021/12/29 10:10:33;;;;;;;;;2.00;2.00;;;;;18.39;86.91;100499.56;5057399;28;61908;-77
2021/12/29 10:12:59;;;;;;;;;1.00;1.00;;;;;18.41;87.12;100496.94;5060501;28;62349;-79
2021/12/29 10:15:35;;;;;;;;;3.00;3.00;;;;;18.49;86.84;100481.94;5059899;28;61872;-79
2021/12/29 10:18:04;;;;;;;;;0.75;0.75;;;;;18.39;88.64;100514.63;5062803;28;62013;-79
2021/12/29 10:20:30;;;;;;;;;5.00;1.00;;;;;18.45;87.94;100504.06;5064073;28;62565;-79
2021/12/29 10:22:58;;;;;;;;;1.25;1.25;;;;;18.45;88.54;100508.50;5064647;28;62258;-77
2021/12/29 10:25:24;;;;;;;;;0.00;0.00;;;;;18.37;88.53;100519.03;5062993;28;62186;-77
2021/12/29 10:27:51;;;;;;;;;0.00;0.00;;;;;18.39;89.11;100510.19;5064208;28;61854;-78
2021/12/29 10:30:23;;;;;;;;;0.25;0.25;;;;;18.51;90.31;100520.06;5064080;28;61903;-79
2021/12/29 10:32:49;;;;;;;;;2.00;0.75;;;;;18.48;91.99;100514.69;5063713;28;61826;-77
2021/12/29 10:35:24;;;;;;;;;0.00;0.00;;;;;18.55;90.86;100515.63;5063330;28;62181;-79
2021/12/29 10:37:52;;;;;;;;;1.00;1.00;;;;;18.64;90.41;100512.16;5066596;28;61859;-79
2021/12/29 10:40:28;;;;;;;;;0.00;0.00;;;;;18.59;90.60;100521.00;5063675;28;61841;-79
2021/12/29 10:42:57;;;;;;;;;0.00;0.00;;;;;18.59;91.05;100518.34;5043989;28;62022;-79
2021/12/29 10:45:37;;;;;;;;;1.00;0.00;;;;;18.64;90.65;100522.78;5058416;28;65296;-79
2021/12/29 10:48:27;;;;;;;;;0.00;0.00;;;;;18.72;91.38;100524.66;5043692;28;61810;-77
2021/12/29 10:51:05;;;;;;;;;0.00;0.00;;;;;18.84;90.76;100515.00;5054172;28;61929;-77
2021/12/29 10:53:38;;;;;;;;;0.00;0.00;;;;;18.82;91.13;100520.28;5057632;28;61849;-77
2021/12/29 10:56:20;;;;;;;;;1.00;1.00;;;;;18.87;90.20;100521.19;5078139;28;63780;-77
2021/12/29 10:58:45;;;;;;;;;2.00;0.00;;;;;18.82;95.28;100522.06;5063667;28;61969;-78
2021/12/29 11:01:13;;;;;;;;;9.50;1.50;;;;;18.66;100.00;100539.63;5063799;28;61987;-77
2021/12/29 11:03:58;;;;;;;;;1.00;1.00;;;;;18.55;100.00;100527.19;5063522;28;62076;-79
2021/12/29 11:06:26;;;;;;;;;0.00;0.00;;;;;18.50;100.00;100526.22;5055999;28;62949;-79
2021/12/29 11:08:57;;;;;;;;;0.00;0.00;;;;;18.49;100.00;100524.47;5050376;28;61953;-79
2021/12/29 11:11:54;;;;;;;;;0.50;0.00;;;;;18.55;100.00;100537.81;5050195;28;61958;-79
2021/12/29 11:14:24;;;;;;;;;0.00;0.00;;;;;18.64;100.00;100539.66;5073006;27;61809;-78
2021/12/29 11:17:19;;;;;;;;;1.00;0.00;;;;;18.72;100.00;100537.94;5065755;28;64997;-78
2021/12/29 11:19:51;;;;;;;;;0.00;0.00;;;;;18.82;100.00;100533.59;5050107;28;61720;-78
2021/12/29 11:22:18;;;;;;;;;0.25;0.25;;;;;18.91;100.00;100543.41;5070628;28;61803;-81
2021/12/29 11:24:52;;;;;;;;;0.00;0.00;;;;;18.91;100.00;100535.41;5050965;28;62084;-81
2021/12/29 11:27:18;;;;;;;;;0.00;0.00;;;;;18.94;100.00;100536.34;5059563;28;62901;-81
2021/12/29 11:29:49;;;;;;;;;0.00;0.00;;;;;19.00;100.00;100543.44;5078495;28;61918;-78
2021/12/29 11:32:29;;;;;;;;;0.00;0.00;;;;;19.03;100.00;100539.94;5055281;28;62139;-76